Time;durP1;ratioP1;P1;durP2;ratioP2;P2;SDS_P1;SDS_P2;PMS_P1;PMS_P2;Temp;Humidity;BMP_temperature;BMP_pressure;BME280_temperature;BME280_humidity;BME280_pressure;Samples;Min_cycle;Max_cycle;Signal;HPM_P1;HPM_P2
2023/03/11 00:00:32;;;;;;;0.65;0.50;;;;;;;;;;5146488;27;20488;-71
2023/03/11 00:02:59;;;;;;;0.45;0.45;;;;;;;;;;5132443;27;20378;-72
2023/03/11 00:05:26;;;;;;;0.30;0.30;;;;;;;;;;5123638;27;20031;-72
2023/03/11 00:07:52;;;;;;;0.90;0.50;;;;;;;;;;5133275;27;20047;-72
2023/03/11 00:10:23;;;;;;;0.93;0.75;;;;;;;;;;5150110;27;20019;-72
2023/03/11 00:12:49;;;;;;;0.73;0.50;;;;;;;;;;5144598;27;20050;-72
2023/03/11 00:15:15;;;;;;;2.95;0.70;;;;;;;;;;5133808;27;20377;-72
2023/03/11 00:17:41;;;;;;;1.15;0.52;;;2.70;99.90;;;;;;5133579;27;20027;-72
2023/03/11 00:20:10;;;;;;;3.55;0.55;;;2.70;99.90;;;;;;5138884;27;20087;-73
2023/03/11 00:22:36;;;;;;;1.17;0.50;;;2.60;99.90;;;;;;5146772;27;20106;-72
2023/03/11 00:25:01;;;;;;;0.70;0.50;;;2.60;99.90;;;;;;5139264;27;20584;-72
2023/03/11 00:27:27;;;;;;;1.52;0.45;;;2.60;99.90;;;;;;5149342;27;20030;-72
2023/03/11 00:29:52;;;;;;;4.55;0.70;;;2.50;99.90;;;;;;5140807;27;20034;-72
2023/03/11 00:32:18;;;;;;;3.63;0.90;;;2.50;99.90;;;;;;5138450;27;20031;-72
2023/03/11 00:34:43;;;;;;;2.25;0.50;;;2.50;99.90;;;;;;5142753;27;20782;-72
2023/03/11 00:37:09;;;;;;;1.38;0.93;;;2.50;99.90;;;;;;5153716;27;20023;-71
2023/03/11 00:39:34;;;;;;;1.38;0.60;;;2.50;99.90;;;;;;5137685;27;20507;-71
2023/03/11 00:42:00;;;;;;;1.98;0.73;;;2.50;99.90;;;;;;5151868;27;20031;-72
2023/03/11 00:44:26;;;;;;;2.17;1.27;;;2.50;99.90;;;;;;5140287;27;20023;-72
2023/03/11 00:46:51;;;;;;;1.40;0.70;;;2.60;99.90;;;;;;5145100;27;20047;-71
2023/03/11 00:49:17;;;;;;;1.30;0.77;;;2.60;99.90;;;;;;5146639;27;20026;-71
2023/03/11 00:51:43;;;;;;;1.27;1.15;;;2.60;99.90;;;;;;5151924;27;20039;-73
2023/03/11 00:54:09;;;;;;;2.60;0.82;;;2.60;99.90;;;;;;5145845;27;20045;-72
2023/03/11 00:56:34;;;;;;;3.08;0.80;;;2.70;99.90;;;;;;5144645;27;20464;-72
2023/03/11 00:59:00;;;;;;;1.27;0.77;;;2.70;99.90;;;;;;5141900;27;20483;-72
2023/03/11 01:01:26;;;;;;;1.35;0.80;;;2.60;99.90;;;;;;5149015;27;20087;-71
2023/03/11 01:03:51;;;;;;;3.53;1.20;;;2.60;99.90;;;;;;5141924;27;20029;-73
2023/03/11 01:06:17;;;;;;;3.75;0.82;;;2.70;99.90;;;;;;5149638;27;20038;-72
2023/03/11 01:08:43;;;;;;;2.08;1.00;;;2.50;99.90;;;;;;5142507;27;20075;-72
2023/03/11 01:11:08;;;;;;;0.95;0.80;;;2.50;99.90;;;;;;5150688;27;20027;-72
2023/03/11 01:13:35;;;;;;;2.22;0.70;;;2.60;99.90;;;;;;5141126;27;20025;-73
2023/03/11 01:16:01;;;;;;;1.63;1.13;;;2.50;99.90;;;;;;5153211;27;20768;-72
2023/03/11 01:18:27;;;;;;;1.40;0.75;;;2.50;99.90;;;;;;5145853;27;20110;-72
2023/03/11 01:20:53;;;;;;;2.40;1.00;;;2.60;99.90;;;;;;5152562;27;20126;-74
2023/03/11 01:23:21;;;;;;;3.42;1.20;;;2.50;99.90;;;;;;5152441;27;20031;-73
2023/03/11 01:25:47;;;;;;;2.33;1.00;;;2.40;99.90;;;;;;5150934;27;20042;-72
2023/03/11 01:28:12;;;;;;;1.83;0.95;;;2.30;99.90;;;;;;5137142;27;20022;-73
2023/03/11 01:30:40;;;;;;;1.50;0.93;;;2.30;99.90;;;;;;5113436;27;20571;-73
2023/03/11 01:33:07;;;;;;;1.40;1.10;;;2.30;99.90;;;;;;5142784;27;20051;-72
2023/03/11 01:35:34;;;;;;;2.85;1.08;;;2.30;99.90;;;;;;5130884;27;20109;-71
2023/03/11 01:38:00;;;;;;;1.85;1.00;;;2.30;99.90;;;;;;5145008;27;20019;-72
2023/03/11 01:40:34;;;;;;;2.63;1.10;;;2.20;99.90;;;;;;5139484;27;20030;-72
2023/03/11 01:43:01;;;;;;;3.75;1.10;;;;;;;;;;5149037;27;20027;-72
2023/03/11 01:45:38;;;;;;;1.65;0.82;;;2.20;99.90;;;;;;5144681;27;20043;-72
2023/03/11 01:48:04;;;;;;;2.33;1.15;;;2.20;99.90;;;;;;5146784;27;20039;-72
2023/03/11 01:50:35;;;;;;;2.80;0.75;;;2.10;99.90;;;;;;5131190;27;20035;-72
2023/03/11 01:53:02;;;;;;;4.03;1.20;;;;;;;;;;5134015;27;20035;-72
2023/03/11 01:55:28;;;;;;;5.18;1.02;;;;;;;;;;5131502;27;20042;-73
2023/03/11 01:57:54;;;;;;;2.45;1.20;;;;;;;;;;5135896;27;20027;-72
2023/03/11 02:00:21;;;;;;;4.13;1.25;;;;;;;;;;5137371;27;20021;-72
2023/03/11 02:02:54;;;;;;;2.88;1.10;;;;;;;;;;5133654;27;20107;-72
2023/03/11 02:05:21;;;;;;;6.63;0.90;;;;;;;;;;5133311;27;20508;-72
2023/03/11 02:07:47;;;;;;;3.17;1.23;;;;;;;;;;5132312;27;20076;-73
2023/03/11 02:10:13;;;;;;;4.18;1.13;;;;;;;;;;5131709;27;20024;-73
2023/03/11 02:12:40;;;;;;;3.22;0.90;;;;;;;;;;5131522;27;20027;-72
2023/03/11 02:15:06;;;;;;;5.18;1.20;;;;;;;;;;5126915;27;20034;-72
2023/03/11 02:17:32;;;;;;;3.15;1.10;;;;;;;;;;5130719;27;20101;-72
2023/03/11 02:20:01;;;;;;;2.22;1.08;;;;;;;;;;5130495;27;20114;-72
2023/03/11 02:22:32;;;;;;;5.53;1.05;;;;;;;;;;5149299;27;20083;-72
2023/03/11 02:25:16;;;;;;;3.47;1.05;;;;;;;;;;5124757;27;20034;-73
2023/03/11 02:27:46;;;;;;;2.60;0.80;;;;;;;;;;5149634;27;20144;-72
2023/03/11 02:30:13;;;;;;;5.65;0.85;;;;;;;;;;5151959;27;20078;-72
2023/03/11 02:32:39;;;;;;;4.25;0.90;;;;;;;;;;5140393;27;20019;-72
2023/03/11 02:35:05;;;;;;;3.10;1.08;;;;;;;;;;5131646;27;20045;-72
2023/03/11 02:37:31;;;;;;;1.52;0.73;;;;;;;;;;5131812;27;20023;-74
2023/03/11 02:40:17;;;;;;;1.85;0.80;;;;;;;;;;5142814;27;20029;-73
2023/03/11 02:42:43;;;;;;;3.30;0.82;;;;;;;;;;5133608;27;20046;-73
2023/03/11 02:45:11;;;;;;;1.48;0.80;;;;;;;;;;5143082;27;20051;-73
2023/03/11 02:47:38;;;;;;;2.10;0.70;;;;;;;;;;5143377;27;20029;-73
2023/03/11 02:50:05;;;;;;;4.32;0.95;;;;;;;;;;5131361;27;20102;-73
2023/03/11 02:52:32;;;;;;;3.20;0.88;;;;;;;;;;5130763;27;20019;-72
2023/03/11 02:54:58;;;;;;;2.88;0.90;;;1.60;99.90;;;;;;5124037;27;20103;-73
2023/03/11 02:57:23;;;;;;;2.20;0.80;;;1.30;99.90;;;;;;5132119;27;20051;-72
2023/03/11 02:59:49;;;;;;;2.15;0.77;;;1.10;99.90;;;;;;5136024;27;20027;-73
2023/03/11 03:02:15;;;;;;;2.45;0.90;;;0.90;99.90;;;;;;5146652;27;20534;-73
2023/03/11 03:04:40;;;;;;;2.42;1.10;;;0.80;99.90;;;;;;5133504;27;20038;-73
2023/03/11 03:07:06;;;;;;;6.07;1.10;;;0.80;99.90;;;;;;5152428;27;20050;-73
2023/03/11 03:09:33;;;;;;;4.68;0.80;;;0.70;99.90;;;;;;5148403;27;20062;-73
2023/03/11 03:11:58;;;;;;;4.93;1.02;;;0.70;99.90;;;;;;5149814;27;20027;-73
2023/03/11 03:14:24;;;;;;;3.00;0.90;;;0.70;99.90;;;;;;5143779;27;20034;-73
2023/03/11 03:16:49;;;;;;;6.13;1.02;;;0.70;99.90;;;;;;5147180;27;20485;-73
2023/03/11 03:19:15;;;;;;;3.60;0.95;;;0.70;99.90;;;;;;5117645;27;20019;-73
2023/03/11 03:21:41;;;;;;;3.55;0.80;;;0.60;99.90;;;;;;5134731;27;20649;-73
2023/03/11 03:24:06;;;;;;;1.65;0.60;;;0.50;99.90;;;;;;5150305;27;20054;-73
2023/03/11 03:26:32;;;;;;;9.20;0.80;;;0.30;99.90;;;;;;5155703;27;20023;-74
2023/03/11 03:28:58;;;;;;;5.28;0.98;;;0.30;99.90;;;;;;5139496;27;20058;-73
2023/03/11 03:31:23;;;;;;;6.15;0.98;;;0.30;99.90;;;;;;5137579;27;20113;-73
2023/03/11 03:33:49;;;;;;;3.47;1.00;;;0.30;99.90;;;;;;5142967;27;20034;-73
2023/03/11 03:36:15;;;;;;;5.88;0.85;;;0.20;99.90;;;;;;5142141;27;20034;-74
2023/03/11 03:38:41;;;;;;;3.85;1.00;;;;;;;;;;5136089;27;20068;-73
2023/03/11 03:41:07;;;;;;;4.55;0.82;;;;;;;;;;5140699;27;20056;-73
2023/03/11 03:43:33;;;;;;;1.90;0.50;;;;;;;;;;5140026;27;20060;-73
2023/03/11 03:46:03;;;;;;;6.25;0.77;;;;;;;;;;5135817;27;20446;-73
2023/03/11 03:48:29;;;;;;;5.97;1.13;;;;;;;;;;5143497;27;20023;-73
2023/03/11 03:50:55;;;;;;;4.38;0.70;;;;;;;;;;5146817;27;20388;-73
2023/03/11 03:53:21;;;;;;;2.72;0.68;;;;;;;;;;5137681;27;20156;-73
2023/03/11 03:55:49;;;;;;;4.65;0.80;;;;;;;;;;5135310;27;20452;-74
2023/03/11 03:58:15;;;;;;;3.22;0.73;;;;;;;;;;5135749;27;20034;-73
2023/03/11 04:00:41;;;;;;;2.38;0.63;;;;;;;;;;5136921;27;20019;-73
2023/03/11 04:03:07;;;;;;;4.85;0.90;;;;;;;;;;5156062;27;20054;-73
2023/03/11 04:05:33;;;;;;;2.30;0.90;;;;;;;;;;5149986;27;20031;-73
2023/03/11 04:07:59;;;;;;;7.25;1.85;;;;;;;;;;5155154;27;20106;-73
2023/03/11 04:10:25;;;;;;;0.77;0.50;;;;;;;;;;5150287;27;20509;-73
2023/03/11 04:12:51;;;;;;;3.80;0.77;;;;;;;;;;5135485;27;20031;-72
2023/03/11 04:15:17;;;;;;;3.40;0.70;;;;;;;;;;5144324;27;20051;-72
2023/03/11 04:17:43;;;;;;;7.50;0.70;;;;;;;;;;5134766;27;20094;-73
2023/03/11 04:20:10;;;;;;;3.55;0.90;;;;;;;;;;5134794;27;20513;-73
2023/03/11 04:22:35;;;;;;;2.03;0.63;;;;;;;;;;5136703;27;20030;-72
2023/03/11 04:25:02;;;;;;;3.20;1.02;;;;;;;;;;5146661;27;20027;-73
2023/03/11 04:27:28;;;;;;;7.28;1.55;;;;;;;;;;5132110;27;20068;-72
2023/03/11 04:29:54;;;;;;;3.70;0.70;;;;;;;;;;5144800;27;20524;-72
2023/03/11 04:32:21;;;;;;;6.22;1.75;;;;;;;;;;5148523;27;20027;-72
2023/03/11 04:34:47;;;;;;;4.57;0.82;;;;;;;;;;5154566;27;20109;-73
2023/03/11 04:37:13;;;;;;;4.72;0.90;;;;;;;;;;5150447;27;20019;-72
2023/03/11 04:39:39;;;;;;;3.15;0.70;;;;;;;;;;5151103;27;20101;-71
2023/03/11 04:42:05;;;;;;;2.58;0.73;;;;;;;;;;5132559;27;20105;-71
2023/03/11 04:44:34;;;;;;;9.55;0.98;;;;;;;;;;5146863;27;20031;-72
2023/03/11 04:47:00;;;;;;;4.35;0.90;;;;;;;;;;5152477;27;20092;-72
2023/03/11 04:49:26;;;;;;;4.32;0.85;;;;;;;;;;5152292;27;20022;-72
2023/03/11 04:51:52;;;;;;;2.95;1.13;;;;;;;;;;5144865;27;20031;-72
2023/03/11 04:54:18;;;;;;;5.40;1.42;;;;;;;;;;5154427;27;20354;-71
2023/03/11 04:56:44;;;;;;;5.15;0.85;;;;;;;;;;5151533;27;20021;-72
2023/03/11 04:59:10;;;;;;;5.55;1.15;;;;;;;;;;5148500;27;20366;-71
2023/03/11 05:01:36;;;;;;;4.75;1.23;;;;;;;;;;5139333;27;20027;-72
2023/03/11 05:04:02;;;;;;;2.90;1.38;;;;;;;;;;5153991;27;20015;-71
2023/03/11 05:06:28;;;;;;;3.30;1.10;;;;;;;;;;5153168;27;20045;-71
2023/03/11 05:08:54;;;;;;;4.00;1.10;;;;;;;;;;5153428;27;20388;-70
2023/03/11 05:11:20;;;;;;;2.08;0.80;;;;;;;;;;5144952;27;20030;-70
2023/03/11 05:13:46;;;;;;;5.45;0.80;;;;;;;;;;5153773;27;20015;-71
2023/03/11 05:16:12;;;;;;;6.43;1.08;;;;;;;;;;5152933;27;20472;-70
2023/03/11 05:18:38;;;;;;;6.90;1.00;;;;;;;;;;5153291;27;20029;-71
2023/03/11 05:21:04;;;;;;;5.32;0.70;;;;;;;;;;5144189;27;20028;-70
2023/03/11 05:23:30;;;;;;;5.50;1.17;;;;;;;;;;5136951;27;20422;-71
2023/03/11 05:25:56;;;;;;;2.47;0.98;;;;;;;;;;5138662;27;20026;-71
2023/03/11 05:28:22;;;;;;;1.70;1.00;;;;;;;;;;5137856;27;20106;-71
2023/03/11 05:30:49;;;;;;;4.82;0.80;;;;;;;;;;5152072;27;20030;-71
2023/03/11 05:33:14;;;;;;;3.67;1.00;;;;;;;;;;5140010;27;20023;-71
2023/03/11 05:35:42;;;;;;;6.38;0.70;;;;;;;;;;5148258;27;20600;-70
2023/03/11 05:38:08;;;;;;;7.20;1.08;;;;;;;;;;5149540;27;20049;-70
2023/03/11 05:40:34;;;;;;;8.15;1.15;;;;;;;;;;5145993;27;20046;-70
2023/03/11 05:42:59;;;;;;;5.18;1.10;;;;;;;;;;5137290;27;20416;-71
2023/03/11 05:45:26;;;;;;;3.28;0.80;;;;;;;;;;5135528;27;20098;-71
2023/03/11 05:47:52;;;;;;;2.80;0.77;;;;;;;;;;5153238;27;20026;-71
2023/03/11 05:50:18;;;;;;;6.45;0.98;;;;;;;;;;5142428;27;20102;-71
2023/03/11 05:52:44;;;;;;;4.18;0.93;;;;;;;;;;5146347;27;20105;-71
2023/03/11 05:55:11;;;;;;;2.40;0.88;;;;;;;;;;5145974;27;20106;-71
2023/03/11 05:57:38;;;;;;;8.77;1.70;;;;;;;;;;5152167;27;20095;-71
2023/03/11 06:00:06;;;;;;;1.98;0.85;;;;;;;;;;5153033;27;20070;-71
2023/03/11 06:02:32;;;;;;;4.22;0.70;;;;;;;;;;5136710;27;20030;-71
2023/03/11 06:04:58;;;;;;;6.85;0.80;;;;;;;;;;5133648;27;20035;-71
2023/03/11 06:07:24;;;;;;;3.83;0.75;;;;;;;;;;5131760;27;20031;-71
2023/03/11 06:09:50;;;;;;;4.38;1.08;;;;;;;;;;5143951;27;20038;-71
2023/03/11 06:12:16;;;;;;;8.38;0.80;;;;;;;;;;5137298;27;20054;-71
2023/03/11 06:14:42;;;;;;;2.80;0.80;;;;;;;;;;5151078;27;20578;-71
2023/03/11 06:17:08;;;;;;;1.60;0.77;;;;;;;;;;5152620;27;20021;-72
2023/03/11 06:19:34;;;;;;;4.53;1.70;;;;;;;;;;5151836;27;20015;-71
2023/03/11 06:22:00;;;;;;;10.45;2.45;;;;;;;;;;5151162;27;20030;-71
2023/03/11 06:24:26;;;;;;;5.43;1.20;;;;;;;;;;5151921;27;20035;-71
2023/03/11 06:26:52;;;;;;;3.92;0.70;;;;;;;;;;5142431;27;20368;-70
2023/03/11 06:29:18;;;;;;;5.25;0.80;;;;;;;;;;5150327;27;20491;-71
2023/03/11 06:31:44;;;;;;;3.58;1.02;;;;;;;;;;5132955;27;20058;-71
2023/03/11 06:34:10;;;;;;;3.55;0.90;;;;;;;;;;5133731;27;20043;-71
2023/03/11 06:36:36;;;;;;;5.35;1.00;;;;;;;;;;5140997;27;20130;-71
2023/03/11 06:39:03;;;;;;;9.75;1.50;;;;;;;;;;5138627;27;20019;-71
2023/03/11 06:41:29;;;;;;;4.60;1.35;;;;;;;;;;5144184;27;20532;-72
2023/03/11 06:43:58;;;;;;;2.67;0.63;;;;;;;;;;5149681;27;20030;-71
2023/03/11 06:46:24;;;;;;;6.80;1.08;;;;;;;;;;5149912;27;20058;-71
2023/03/11 06:48:51;;;;;;;4.38;0.80;;;;;;;;;;5147385;27;20492;-71
2023/03/11 06:51:17;;;;;;;8.15;0.93;;;;;;;;;;5139117;27;20095;-71
2023/03/11 06:53:43;;;;;;;7.20;1.00;;;;;;;;;;5141703;27;20034;-70
2023/03/11 06:56:11;;;;;;;5.90;1.00;;;;;;;;;;5140655;27;20023;-70
2023/03/11 06:58:37;;;;;;;7.05;0.80;;;;;;;;;;5149730;27;20026;-72
2023/03/11 07:01:05;;;;;;;5.90;1.20;;;;;;;;;;5146873;27;20036;-71
2023/03/11 07:03:31;;;;;;;5.55;0.77;;;;;;;;;;5150258;27;20422;-72
2023/03/11 07:05:57;;;;;;;3.60;0.75;;;;;;;;;;5132248;27;20029;-72
2023/03/11 07:08:24;;;;;;;3.05;0.88;;;;;;;;;;5129607;28;20499;-72
2023/03/11 07:11:07;;;;;;;7.00;1.10;;;;;;;;;;5138510;27;20075;-72
2023/03/11 07:13:33;;;;;;;5.13;0.85;;;;;;;;;;5140232;27;20030;-72
2023/03/11 07:16:00;;;;;;;4.30;1.23;;;;;;;;;;5141976;27;20472;-72
2023/03/11 07:18:26;;;;;;;6.43;1.10;;;;;;;;;;5142197;27;20703;-72
2023/03/11 07:20:52;;;;;;;3.17;0.90;;;;;;;;;;5141011;27;20106;-72
2023/03/11 07:23:18;;;;;;;5.50;1.02;;;;;;;;;;5151221;27;20357;-73
2023/03/11 07:25:47;;;;;;;3.53;0.80;;;;;;;;;;5128146;27;20154;-72
2023/03/11 07:28:13;;;;;;;7.33;1.73;;;;;;;;;;5151377;27;20031;-72
2023/03/11 07:30:39;;;;;;;5.95;0.85;;;;;;;;;;5143998;27;20092;-73
2023/03/11 07:33:05;;;;;;;6.53;0.98;;;;;;;;;;5131171;27;20106;-72
2023/03/11 07:35:31;;;;;;;5.47;0.80;;;;;;;;;;5124142;27;20023;-72
2023/03/11 07:37:57;;;;;;;6.45;0.98;;;;;;;;;;5131224;28;20019;-72
2023/03/11 07:40:23;;;;;;;4.43;1.50;;;;;;;;;;5124961;28;20076;-72
2023/03/11 07:42:49;;;;;;;7.28;1.02;;;;;;;;;;5131066;28;20098;-72
2023/03/11 07:45:15;;;;;;;6.97;1.00;;;;;;;;;;5127174;27;20446;-71
2023/03/11 07:47:41;;;;;;;5.82;1.02;;;;;;;;;;5127991;27;20041;-72
2023/03/11 07:50:07;;;;;;;5.18;1.13;;;;;;;;;;5142937;27;20031;-72
2023/03/11 07:52:33;;;;;;;10.07;1.70;;;;;;;;;;5128865;27;20076;-72
2023/03/11 07:54:59;;;;;;;10.60;1.27;;;;;;;;;;5145068;27;20055;-72
2023/03/11 07:57:25;;;;;;;12.25;0.80;;;;;;;;;;5141463;27;20809;-73
2023/03/11 07:59:51;;;;;;;9.20;1.40;;;;;;;;;;5148607;27;20072;-72
2023/03/11 08:02:17;;;;;;;5.15;1.13;;;;;;;;;;5139553;27;20023;-72
2023/03/11 08:04:43;;;;;;;9.68;1.30;;;;;;;;;;5145718;27;20038;-72
2023/03/11 08:07:09;;;;;;;5.22;1.00;;;;;;;;;;5135606;27;20366;-72
2023/03/11 08:09:36;;;;;;;6.50;0.90;;;;;;;;;;5146170;27;20448;-72
2023/03/11 08:12:02;;;;;;;7.07;1.27;;;;;;;;;;5137714;27;20318;-72
2023/03/11 08:14:28;;;;;;;2.42;0.95;;;;;;;;;;5135837;27;20037;-72
2023/03/11 08:16:54;;;;;;;6.82;1.85;;;;;;;;;;5147015;27;20018;-72
2023/03/11 08:19:20;;;;;;;7.60;1.15;;;;;;;;;;5144991;27;20027;-71
2023/03/11 08:21:46;;;;;;;10.07;1.40;;;;;;;;;;5144847;27;20050;-72
2023/03/11 08:24:13;;;;;;;7.78;0.80;;;;;;;;;;5141983;27;20019;-72
2023/03/11 08:26:39;;;;;;;5.15;0.95;;;;;;;;;;5146212;27;20065;-72
2023/03/11 08:29:05;;;;;;;6.72;1.02;;;;;;;;;;5146600;27;20050;-72
2023/03/11 08:31:33;;;;;;;9.30;1.10;;;;;;;;;;5144841;27;20038;-74
2023/03/11 08:34:01;;;;;;;4.57;0.80;;;;;;;;;;5146042;27;20022;-76
2023/03/11 08:36:27;;;;;;;6.80;0.90;;;;;;;;;;5145320;27;20054;-72
2023/03/11 08:38:53;;;;;;;2.67;0.90;;;;;;;;;;5140284;27;20027;-80
2023/03/11 08:41:19;;;;;;;10.60;1.08;;;;;;;;;;5139915;27;20019;-76
2023/03/11 08:43:45;;;;;;;6.93;0.93;;;;;;;;;;5148962;27;20533;-69
2023/03/11 08:46:29;;;;;;;7.85;0.98;;;;;;;;;;5145014;27;20085;-73
2023/03/11 08:48:56;;;;;;;6.43;0.80;;;;;;;;;;5144305;27;20959;-75
2023/03/11 08:51:22;;;;;;;4.88;0.82;;;;;;;;;;5148297;27;20102;-73
2023/03/11 08:53:48;;;;;;;2.92;0.90;;;;;;;;;;5144798;27;20049;-74
2023/03/11 08:56:14;;;;;;;7.93;1.27;;;;;;;;;;5146549;27;20077;-73
2023/03/11 08:58:40;;;;;;;6.18;1.00;;;;;;;;;;5144838;27;20484;-73
2023/03/11 09:01:08;;;;;;;6.47;1.00;;;;;;;;;;5144994;27;20057;-74
2023/03/11 09:03:34;;;;;;;6.97;0.90;;;;;;;;;;5144713;27;20022;-73
2023/03/11 09:06:01;;;;;;;6.60;1.17;;;;;;;;;;5150286;27;20371;-70
2023/03/11 09:08:27;;;;;;;4.03;0.98;;;;;;;;;;5145707;27;20357;-73
2023/03/11 09:10:53;;;;;;;6.30;1.13;;;;;;;;;;5144851;27;20025;-74
2023/03/11 09:13:19;;;;;;;9.60;1.00;;;;;;;;;;5140608;27;20018;-74
2023/03/11 09:15:46;;;;;;;12.55;1.52;;;3.00;99.90;;;;;;5148731;27;20034;-75
2023/03/11 09:18:13;;;;;;;6.03;1.27;;;2.90;99.90;;;;;;5142075;27;20058;-74
2023/03/11 09:20:39;;;;;;;5.40;1.30;;;3.00;99.90;;;;;;5141141;27;20557;-75
2023/03/11 09:23:05;;;;;;;6.63;1.15;;;3.20;99.90;;;;;;5145612;27;20084;-73
2023/03/11 09:25:31;;;;;;;3.25;1.05;;;3.30;99.90;;;;;;5151007;27;20035;-73
2023/03/11 09:27:57;;;;;;;4.75;0.95;;;3.40;99.90;;;;;;5137662;27;20114;-75
2023/03/11 09:30:22;;;;;;;5.10;1.10;;;3.50;99.90;;;;;;5141514;27;20015;-73
2023/03/11 09:32:48;;;;;;;5.43;0.88;;;3.40;99.90;;;;;;5153572;27;20026;-77
2023/03/11 09:35:13;;;;;;;4.43;0.77;;;3.30;99.90;;;;;;5142753;27;20485;-73
2023/03/11 09:37:39;;;;;;;7.18;0.95;;;3.20;99.90;;;;;;5146756;27;20061;-76
2023/03/11 09:40:05;;;;;;;4.72;1.35;;;3.30;99.90;;;;;;5144029;27;20030;-73
2023/03/11 09:43:02;;;;;;;12.50;1.17;;;3.40;99.90;;;;;;5132532;27;20034;-73
2023/03/11 09:45:30;;;;;;;6.93;1.00;;;3.40;99.90;;;;;;5147366;27;20054;-78
2023/03/11 09:48:15;;;;;;;2.22;0.80;;;3.60;99.90;;;;;;5150967;27;20025;-77
2023/03/11 09:51:01;;;;;;;4.30;0.95;;;3.70;99.90;;;;;;5136355;27;20272;-80
2023/03/11 09:53:48;;;;;;;3.72;0.88;;;3.90;99.90;;;;;;5144681;27;20022;-76
2023/03/11 09:56:20;;;;;;;3.25;0.90;;;4.10;99.90;;;;;;5139393;27;20027;-80
2023/03/11 09:58:58;;;;;;;4.78;1.30;;;4.20;99.90;;;;;;5152542;27;20023;-77
2023/03/11 10:01:32;;;;;;;6.22;1.20;;;4.20;99.90;;;;;;5151844;27;20031;-79
2023/03/11 10:04:07;;;;;;;4.80;1.50;;;4.20;99.90;;;;;;5153210;27;20023;-74
2023/03/11 10:06:33;;;;;;;3.80;1.27;;;4.30;99.90;;;;;;5151692;27;20030;-77
2023/03/11 10:09:33;;;;;;;8.20;1.15;;;4.60;99.90;;;;;;5149258;27;20034;-76
2023/03/11 10:12:13;;;;;;;2.97;1.00;;;4.80;99.90;;;;;;5133715;27;20374;-76
2023/03/11 10:14:51;;;;;;;6.38;1.00;;;4.90;98.90;;;;;;5140348;27;20037;-76
2023/03/11 10:17:35;;;;;;;2.95;0.60;;;4.80;98.40;;;;;;5141826;27;20434;-75
2023/03/11 10:20:35;;;;;;;5.35;0.70;;;4.70;98.40;;;;;;5135829;27;20067;-76
2023/03/11 10:23:20;;;;;;;5.18;1.00;;;4.50;97.90;;;;;;5149888;27;20023;-76
2023/03/11 10:25:55;;;;;;;3.08;0.60;;;4.50;96.70;;;;;;5150241;27;20046;-74
2023/03/11 10:28:26;;;;;;;2.97;1.13;;;4.30;95.60;;;;;;5152643;27;20487;-71
2023/03/11 10:30:56;;;;;;;1.45;0.65;;;4.20;96.50;;;;;;5150021;27;20064;-76
2023/03/11 10:33:45;;;;;;;2.08;0.55;;;4.30;96.80;;;;;;5147150;27;20076;-72
2023/03/11 10:36:17;;;;;;;3.47;0.73;;;4.50;96.40;;;;;;5138115;27;20033;-75
2023/03/11 10:38:47;;;;;;;6.00;0.93;;;4.60;96.80;;;;;;5151871;27;20463;-75
2023/03/11 10:41:40;;;;;;;1.88;0.45;;;4.80;95.10;;;;;;5147227;27;20384;-75
2023/03/11 10:44:22;;;;;;;1.58;0.38;;;5.00;93.40;;;;;;5127721;27;20034;-75
2023/03/11 10:46:48;;;;;;;0.50;0.22;;;5.30;91.60;;;;;;5141475;27;20101;-76
2023/03/11 10:49:16;;;;;;;3.20;0.80;;;5.50;91.50;;;;;;5152442;27;20061;-76
2023/03/11 10:51:49;;;;;;;4.00;0.55;;;5.80;91.40;;;;;;5121877;27;20651;-76
2023/03/11 10:54:21;;;;;;;1.73;0.50;;;;;;;;;;5146177;27;20094;-75
2023/03/11 10:56:50;;;;;;;1.50;0.57;;;;;;;;;;5121833;27;20039;-76
2023/03/11 10:59:23;;;;;;;2.88;0.60;;;;;;;;;;5132506;27;20027;-77
2023/03/11 11:02:00;;;;;;;1.58;0.70;;;;;;;;;;5151912;27;20023;-76
2023/03/11 11:04:31;;;;;;;4.38;0.47;;;;;;;;;;5142657;27;20023;-75
2023/03/11 11:06:58;;;;;;;3.78;0.70;;;;;;;;;;5131241;27;20027;-74
2023/03/11 11:09:24;;;;;;;1.48;0.52;;;;;;;;;;5136832;27;20023;-72
2023/03/11 11:12:08;;;;;;;2.53;0.35;;;;;;;;;;5144209;27;20038;-76
2023/03/11 11:14:45;;;;;;;1.88;0.88;;;;;;;;;;5151908;27;20354;-76
2023/03/11 11:17:24;;;;;;;2.92;0.60;;;;;;;;;;5152257;27;20023;-76
2023/03/11 11:19:50;;;;;;;2.53;0.60;;;;;;;;;;5140547;27;20118;-76
2023/03/11 11:22:18;;;;;;;2.28;0.55;;;;;;;;;;5137690;27;20416;-76
2023/03/11 11:24:45;;;;;;;4.03;0.77;;;;;;;;;;5138409;27;20039;-74
2023/03/11 11:27:25;;;;;;;2.05;0.63;;;;;;;;;;5152957;27;20060;-75
2023/03/11 11:30:03;;;;;;;3.45;0.65;;;;;;;;;;5135175;27;20394;-76
2023/03/11 11:32:29;;;;;;;2.03;0.70;;;;;;;;;;5131805;27;20047;-75
2023/03/11 11:34:58;;;;;;;4.00;0.80;;;;;;;;;;5137685;27;20050;-74
2023/03/11 11:37:25;;;;;;;3.75;0.85;;;;;;;;;;5135491;27;20098;-75
2023/03/11 11:39:57;;;;;;;2.35;0.52;;;;;;;;;;5145405;27;20027;-77
2023/03/11 11:42:25;;;;;;;2.47;0.70;;;;;;;;;;5139569;27;20018;-74
2023/03/11 11:44:54;;;;;;;7.07;0.80;;;;;;;;;;5143073;27;20065;-76
2023/03/11 11:47:23;;;;;;;3.47;0.80;;;;;;;;;;5151949;27;20019;-73
2023/03/11 11:49:54;;;;;;;6.00;1.03;;;;;;;;;;5148556;27;20491;-76
2023/03/11 11:52:43;;;;;;;4.43;1.50;;;;;;;;;;5155485;27;20015;-73
2023/03/11 11:55:20;;;;;;;1.42;0.60;;;;;;;;;;5143996;27;20175;-75
2023/03/11 11:57:46;;;;;;;5.28;0.90;;;;;;;;;;5153575;27;20046;-75
2023/03/11 12:00:19;;;;;;;3.78;0.70;;;;;;;;;;5151829;27;20103;-76
2023/03/11 12:02:45;;;;;;;3.40;0.80;;;;;;;;;;5150215;27;20030;-75
2023/03/11 12:05:21;;;;;;;3.55;0.80;;;;;;;;;;5144820;27;20133;-76
2023/03/11 12:07:50;;;;;;;2.78;0.43;;;;;;;;;;5153629;27;20469;-76
2023/03/11 12:10:21;;;;;;;5.45;0.90;;;;;;;;;;5155334;27;20067;-77
2023/03/11 12:13:14;;;;;;;2.75;0.82;;;;;;;;;;5147348;27;20034;-77
2023/03/11 12:15:43;;;;;;;3.45;0.80;;;;;;;;;;5144215;27;20105;-76
2023/03/11 12:18:29;;;;;;;1.48;0.75;;;;;;;;;;5155402;27;20553;-76
2023/03/11 12:20:55;;;;;;;3.22;0.73;;;;;;;;;;5153546;27;20148;-76
2023/03/11 12:23:39;;;;;;;3.97;0.70;;;;;;;;;;5144157;27;20094;-73
2023/03/11 12:26:35;;;;;;;2.80;1.02;;;;;;;;;;5150594;27;20477;-76
2023/03/11 12:29:03;;;;;;;5.13;0.80;;;;;;;;;;5132811;27;20377;-76
2023/03/11 12:31:33;;;;;;;2.70;0.60;;;;;;;;;;5153717;27;20114;-77
2023/03/11 12:34:02;;;;;;;2.47;0.90;;;;;;;;;;5144611;27;20026;-76
2023/03/11 12:36:32;;;;;;;2.33;0.63;;;;;;;;;;5147512;27;20027;-77
2023/03/11 12:39:00;;;;;;;1.58;0.52;;;;;;;;;;5117173;27;20489;-76
2023/03/11 12:41:38;;;;;;;3.25;0.85;;;;;;;;;;5140234;27;20095;-75
2023/03/11 12:44:20;;;;;;;3.45;0.80;;;;;;;;;;5134678;27;20183;-76
2023/03/11 12:46:58;;;;;;;3.50;0.70;;;;;;;;;;5140030;27;20050;-79
2023/03/11 12:49:25;;;;;;;1.02;0.65;;;;;;;;;;5156765;27;20027;-73
2023/03/11 12:52:18;;;;;;;5.57;0.80;;;;;;;;;;5157361;27;20053;-77
2023/03/11 12:54:45;;;;;;;2.65;0.70;;;;;;;;;;5132003;27;20046;-76
2023/03/11 12:57:16;;;;;;;3.40;0.88;;;;;;;;;;5146034;27;20100;-76
2023/03/11 13:00:01;;;;;;;2.97;0.70;;;9.20;73.90;;;;;;5150550;27;20184;-76
2023/03/11 13:02:48;;;;;;;4.65;0.85;;;9.40;74.60;;;;;;5156208;27;20031;-75
2023/03/11 13:05:38;;;;;;;3.08;0.63;;;10.10;72.00;;;;;;5152826;27;20041;-76
2023/03/11 13:08:26;;;;;;;1.38;0.70;;;9.80;70.50;;;;;;5154707;27;20102;-75
2023/03/11 13:10:56;;;;;;;2.35;0.65;;;9.30;71.50;;;;;;5137954;27;20438;-74
2023/03/11 13:13:40;;;;;;;2.42;0.77;;;9.20;75.40;;;;;;5139083;27;20047;-71
2023/03/11 13:16:29;;;;;;;4.57;0.63;;;9.80;71.50;;;;;;5147474;27;20093;-73
2023/03/11 13:19:30;;;;;;;0.77;0.50;;;10.70;69.70;;;;;;5123591;27;20047;-73
2023/03/11 13:21:58;;;;;;;2.70;1.05;;;11.40;70.50;;;;;;5149658;27;20392;-73
2023/03/11 13:24:28;;;;;;;2.60;0.70;;;12.00;67.80;;;;;;5144141;27;20388;-70
2023/03/11 13:27:06;;;;;;;2.53;0.55;;;11.90;65.60;;;;;;5133999;27;20054;-75
2023/03/11 13:29:46;;;;;;;3.58;0.73;;;11.90;66.80;;;;;;5132898;27;20080;-75
2023/03/11 13:32:38;;;;;;;5.55;0.77;;;11.60;67.50;;;;;;5144903;27;20019;-72
2023/03/11 13:35:29;;;;;;;5.15;1.20;;;11.30;66.90;;;;;;5150974;27;20027;-74
2023/03/11 13:38:22;;;;;;;7.68;1.70;;;10.30;68.00;;;;;;5117348;27;20087;-72
2023/03/11 13:40:50;;;;;;;3.40;1.10;;;9.60;68.30;;;;;;5145646;27;20029;-72
2023/03/11 13:43:19;;;;;;;3.28;1.02;;;9.20;68.60;;;;;;5141437;27;20150;-72
2023/03/11 13:46:05;;;;;;;4.03;0.82;;;9.00;68.50;;;;;;5142255;27;20198;-73
2023/03/11 13:48:40;;;;;;;4.45;1.02;;;9.00;69.50;;;;;;5122125;27;20059;-73
2023/03/11 13:51:16;;;;;;;4.93;0.93;;;9.10;69.60;;;;;;5124127;27;20088;-73
2023/03/11 13:53:45;;;;;;;4.88;1.25;;;9.00;69.60;;;;;;5115791;27;20522;-72
2023/03/11 13:56:20;;;;;;;3.45;1.20;;;9.00;69.30;;;;;;5130189;27;20035;-72
2023/03/11 13:58:46;;;;;;;6.13;0.90;;;8.90;69.70;;;;;;5131400;27;20504;-71
2023/03/11 14:01:16;;;;;;;2.45;0.85;;;9.00;68.90;;;;;;5125219;27;20028;-73
2023/03/11 14:03:43;;;;;;;3.05;0.80;;;8.70;70.60;;;;;;5116594;27;20015;-72
2023/03/11 14:06:17;;;;;;;5.55;1.10;;;8.70;70.60;;;;;;5132040;27;20392;-73
2023/03/11 14:08:55;;;;;;;3.45;0.80;;;8.50;70.10;;;;;;5120526;27;20023;-73
2023/03/11 14:11:30;;;;;;;5.88;1.23;;;8.60;71.00;;;;;;5129423;27;20072;-71
2023/03/11 14:13:56;;;;;;;7.72;1.30;;;9.00;71.40;;;;;;5131115;27;20031;-72